createdAt,value
2018-07-24T00:02:31.122Z,97949.78
2018-07-24T00:05:03.279Z,97955.95
2018-07-24T00:07:35.041Z,97951.94
2018-07-24T00:10:06.992Z,97954.30
2018-07-24T00:12:38.602Z,97964.97
2018-07-24T00:15:10.436Z,97960.97
2018-07-24T00:17:42.344Z,97977.69
2018-07-24T00:20:14.589Z,97982.02
2018-07-24T00:22:46.363Z,97988.69
2018-07-24T00:25:18.450Z,97988.06
2018-07-24T00:27:50.518Z,97996.70
2018-07-24T00:30:22.139Z,98000.39
2018-07-24T00:32:54.304Z,98007.25
2018-07-24T00:35:25.953Z,98015.08
2018-07-24T00:37:57.861Z,98017.75
2018-07-24T00:40:29.938Z,98021.66
2018-07-24T00:43:01.735Z,98031.80
2018-07-24T00:45:33.424Z,98036.53
2018-07-24T00:48:05.367Z,98041.14
2018-07-24T00:50:37.161Z,98040.86
2018-07-24T00:53:08.949Z,98043.81
2018-07-24T00:55:40.675Z,98041.97
2018-07-24T00:58:12.668Z,98043.02
2018-07-24T01:00:45.024Z,98046.20
2018-07-24T01:03:16.864Z,98046.48
2018-07-24T01:05:48.676Z,98061.39
2018-07-24T01:08:20.613Z,98069.27
2018-07-24T01:10:52.486Z,98068.26
2018-07-24T01:13:24.094Z,98064.37
2018-07-24T01:15:56.118Z,98069.09
2018-07-24T01:18:27.972Z,98067.23
2018-07-24T01:20:59.892Z,98068.89
2018-07-24T01:23:31.661Z,98066.28
2018-07-24T01:26:03.556Z,98064.25
2018-07-24T01:28:35.354Z,98072.45
2018-07-24T01:31:07.084Z,98071.94
2018-07-24T01:33:39.233Z,98080.27
2018-07-24T01:36:11.236Z,98076.27
2018-07-24T01:38:43.132Z,98084.27
2018-07-24T01:41:15.166Z,98088.60
2018-07-24T01:43:46.981Z,98088.98
2018-07-24T01:46:18.984Z,98089.30
2018-07-24T01:48:51.206Z,98090.13
2018-07-24T01:51:22.811Z,98097.31
2018-07-24T01:53:54.632Z,98094.13
2018-07-24T01:56:26.107Z,98098.83
2018-07-24T01:58:58.185Z,98105.83
2018-07-24T02:01:29.958Z,98101.69
2018-07-24T02:04:02.340Z,98098.77
2018-07-24T02:06:34.343Z,98099.66
2018-07-24T02:09:08.266Z,98099.02
2018-07-24T02:11:39.999Z,98098.33
2018-07-24T02:14:11.838Z,98096.99
2018-07-24T02:16:43.909Z,98100.67
2018-07-24T02:19:15.807Z,98099.84
2018-07-24T02:21:47.627Z,98105.31
2018-07-24T02:24:19.381Z,98101.00
2018-07-24T02:26:50.865Z,98101.82
2018-07-24T02:29:23.128Z,98105.83
2018-07-24T02:31:54.714Z,98099.66
2018-07-24T02:34:26.465Z,98098.96
2018-07-24T02:36:58.519Z,98096.77
2018-07-24T02:39:30.399Z,98094.92
2018-07-24T02:42:02.174Z,98086.72
2018-07-24T02:44:33.907Z,98089.39
2018-07-24T02:47:05.720Z,98089.08
2018-07-24T02:49:37.585Z,98086.72
2018-07-24T02:52:09.352Z,98087.97
2018-07-24T02:54:40.783Z,98088.66
2018-07-24T02:57:12.581Z,98083.00
2018-07-24T02:59:44.408Z,98091.97
2018-07-24T03:02:16.524Z,98089.30
2018-07-24T03:04:48.834Z,98089.30
2018-07-24T03:07:20.880Z,98096.80
2018-07-24T03:09:52.560Z,98101.50
2018-07-24T03:12:24.317Z,98106.66
2018-07-24T03:14:56.060Z,98102.84
2018-07-24T03:17:27.797Z,98102.02
2018-07-24T03:19:59.645Z,98098.64
2018-07-24T03:22:31.685Z,98100.80
2018-07-24T03:25:03.524Z,98099.28
2018-07-24T03:27:35.345Z,98097.31
2018-07-24T03:30:07.452Z,98098.64
2018-07-24T03:32:39.328Z,98091.65
2018-07-24T03:35:11.168Z,98092.92
2018-07-24T03:37:42.901Z,98087.80
2018-07-24T03:40:14.876Z,98084.91
2018-07-24T03:42:46.633Z,98084.19
2018-07-24T03:45:18.537Z,98091.88
2018-07-24T03:47:50.683Z,98094.86
2018-07-24T03:50:22.472Z,98103.19
2018-07-24T03:52:54.393Z,98097.50
2018-07-24T03:55:26.686Z,98109.33
2018-07-24T03:57:58.796Z,98108.95
2018-07-24T04:00:31.442Z,98123.91
2018-07-24T04:03:03.368Z,98113.55
2018-07-24T04:05:35.399Z,98118.58
2018-07-24T04:08:07.255Z,98118.39
2018-07-24T04:10:39.275Z,98117.50
2018-07-24T04:13:11.112Z,98117.30
2018-07-24T04:15:42.564Z,98117.81
2018-07-24T04:18:14.540Z,98123.44
2018-07-24T04:20:46.641Z,98126.20
2018-07-24T04:23:18.742Z,98126.02
2018-07-24T04:25:54.452Z,98127.35
2018-07-24T04:28:26.634Z,98125.19
2018-07-24T04:30:58.589Z,98125.51
2018-07-24T04:33:30.717Z,98131.99
2018-07-24T04:36:02.531Z,98124.49
2018-07-24T04:38:34.892Z,98126.84
2018-07-24T04:41:06.914Z,98121.56
2018-07-24T04:43:38.878Z,98123.66
2018-07-24T04:46:09.838Z,98125.83
2018-07-24T04:48:41.986Z,98122.02
2018-07-24T04:51:13.773Z,98125.79
2018-07-24T04:53:53.848Z,98121.98
2018-07-24T04:56:26.522Z,98119.34
2018-07-24T04:58:58.705Z,98120.00
2018-07-24T05:01:31.507Z,98118.16
2018-07-24T05:04:03.659Z,98119.70
2018-07-24T05:06:35.617Z,98114.44
2018-07-24T05:09:12.867Z,98126.17
2018-07-24T05:11:45.195Z,98122.58
2018-07-24T05:14:17.496Z,98120.23
2018-07-24T05:16:50.317Z,98118.52
2018-07-24T05:19:22.630Z,98121.82
2018-07-24T05:21:54.530Z,98117.91
2018-07-24T05:24:26.509Z,98118.42
2018-07-24T05:26:58.404Z,98123.57
2018-07-24T05:29:30.569Z,98123.38
2018-07-24T05:32:02.286Z,98126.75
2018-07-24T05:34:34.487Z,98127.39
2018-07-24T05:37:06.474Z,98118.52
2018-07-24T05:39:38.507Z,98124.17
2018-07-24T05:42:11.764Z,98122.33
2018-07-24T05:44:44.540Z,98115.97
2018-07-24T05:47:16.653Z,98113.81
2018-07-24T05:49:49.146Z,98115.43
2018-07-24T05:52:21.616Z,98112.66
2018-07-24T05:54:54.898Z,98112.06
2018-07-24T05:57:27.449Z,98110.41
2018-07-24T05:59:59.749Z,98104.46
2018-07-24T06:02:33.185Z,98099.73
2018-07-24T06:05:05.896Z,98103.55
2018-07-24T06:07:37.846Z,98105.70
2018-07-24T06:10:10.266Z,98096.64
2018-07-24T06:12:42.932Z,98091.11
2018-07-24T06:15:14.497Z,98092.03
2018-07-24T06:17:46.468Z,98087.01
2018-07-24T06:20:19.615Z,98086.91
2018-07-24T06:22:52.152Z,98083.55
2018-07-24T06:25:24.447Z,98092.25
2018-07-24T06:27:56.452Z,98084.78
2018-07-24T06:30:29.290Z,98095.84
2018-07-24T06:33:01.607Z,98100.27
2018-07-24T06:35:34.123Z,98103.26
2018-07-24T06:38:06.799Z,98092.19
2018-07-24T06:40:38.992Z,98089.01
2018-07-24T06:43:11.766Z,98091.17
2018-07-24T06:45:47.033Z,98085.32
2018-07-24T06:48:19.628Z,98087.48
2018-07-24T06:50:51.860Z,98090.16
2018-07-24T06:53:23.939Z,98079.98
2018-07-24T06:55:55.685Z,98072.45
2018-07-24T06:58:27.650Z,98076.16
2018-07-24T07:00:59.824Z,98070.41
2018-07-24T07:03:32.839Z,98067.98
2018-07-24T07:06:04.830Z,98067.47
2018-07-24T07:08:36.649Z,98071.29
2018-07-24T07:11:08.702Z,98063.37
2018-07-24T07:13:40.589Z,98063.56
2018-07-24T07:16:12.913Z,98065.21
2018-07-24T07:18:44.780Z,98059.99
2018-07-24T07:21:17.059Z,98057.32
2018-07-24T07:23:49.365Z,98054.45
2018-07-24T07:26:21.709Z,98047.45
2018-07-24T07:28:53.355Z,98053.44
2018-07-24T07:31:25.127Z,98049.71
2018-07-24T07:33:57.035Z,98051.36
2018-07-24T07:36:28.722Z,98045.52
2018-07-24T07:39:00.742Z,98040.08
2018-07-24T07:41:32.532Z,98032.34
2018-07-24T07:44:04.735Z,98035.65
2018-07-24T07:46:36.784Z,98029.48
2018-07-24T07:49:09.052Z,98023.62
2018-07-24T07:51:40.949Z,98010.39
2018-07-24T07:54:12.798Z,98007.59
2018-07-24T07:56:44.699Z,97991.05
2018-07-24T07:59:16.866Z,97983.23
2018-07-24T08:01:48.774Z,97974.20
2018-07-24T08:04:21.596Z,97975.77
2018-07-24T08:06:53.492Z,97972.59
2018-07-24T08:09:25.827Z,97970.75
2018-07-24T08:11:58.213Z,97970.04
2018-07-24T08:14:30.806Z,97964.18
2018-07-24T08:17:04.595Z,97965.33
2018-07-24T08:19:36.987Z,97957.81
2018-07-24T08:22:09.369Z,97949.80
2018-07-24T08:24:42.325Z,97943.63
2018-07-24T08:27:14.645Z,97936.75
2018-07-24T08:29:47.300Z,97936.24
2018-07-24T08:32:19.479Z,97935.70
2018-07-24T08:34:51.497Z,97939.52
2018-07-24T08:37:24.293Z,97936.84
2018-07-24T08:39:56.379Z,97935.19
2018-07-24T08:42:28.619Z,97927.48
2018-07-24T08:45:00.574Z,97929.65
2018-07-24T08:47:32.483Z,97925.44
2018-07-24T08:50:04.717Z,97923.91
2018-07-24T08:52:36.897Z,97913.22
2018-07-24T08:55:09.298Z,97911.14
2018-07-24T08:57:41.983Z,97899.94
2018-07-24T09:00:14.324Z,97903.95
2018-07-24T09:02:46.172Z,97909.09
2018-07-24T09:05:19.690Z,97896.05
2018-07-24T09:07:51.892Z,97889.36
2018-07-24T09:10:24.051Z,97876.94
2018-07-24T09:12:56.297Z,97875.29
2018-07-24T09:15:29.176Z,97875.29
2018-07-24T09:18:01.909Z,97868.41
2018-07-24T09:20:35.720Z,97868.09
2018-07-24T09:23:08.026Z,97855.56
2018-07-24T09:25:40.093Z,97837.67
2018-07-24T09:28:12.194Z,97842.78
2018-07-24T09:30:45.056Z,97841.25
2018-07-24T09:33:18.196Z,97846.52
2018-07-24T09:35:52.781Z,97844.87
2018-07-24T09:38:25.456Z,97847.03
2018-07-24T09:41:00.190Z,97846.72
2018-07-24T09:43:33.279Z,97854.42
2018-07-24T09:46:05.901Z,97846.91
2018-07-24T09:48:38.860Z,97841.77
2018-07-24T09:51:11.339Z,97835.91
2018-07-24T09:53:45.012Z,97833.12
2018-07-24T09:56:19.267Z,97846.09
2018-07-24T09:58:52.202Z,97847.12
2018-07-24T10:01:29.003Z,97851.44
2018-07-24T10:04:02.385Z,97849.91
2018-07-24T10:06:35.973Z,97846.92
2018-07-24T10:09:11.679Z,97849.59
2018-07-24T10:11:44.039Z,97843.81
2018-07-24T10:14:16.534Z,97834.78
2018-07-24T10:16:49.197Z,97826.05
2018-07-24T10:19:21.668Z,97811.47
2018-07-24T10:21:53.923Z,97812.38
2018-07-24T10:24:26.363Z,97812.28
2018-07-24T10:27:00.462Z,97811.66
2018-07-24T10:29:33.326Z,97797.27
2018-07-24T10:32:05.585Z,97794.80
2018-07-24T10:34:37.453Z,97799.83
2018-07-24T10:37:10.864Z,97804.36
2018-07-24T10:39:44.147Z,97806.00
2018-07-24T10:42:18.659Z,97809.30
2018-07-24T10:44:51.491Z,97802.30
2018-07-24T10:47:23.261Z,97802.30
2018-07-24T10:49:55.766Z,97789.97
2018-07-24T10:52:28.076Z,97791.41
2018-07-24T10:55:01.733Z,97790.67
2018-07-24T10:57:33.998Z,97788.43
2018-07-24T11:00:06.771Z,97799.74
2018-07-24T11:02:39.239Z,97810.44
2018-07-24T11:05:11.777Z,97812.28
2018-07-24T11:07:45.454Z,97818.96
2018-07-24T11:10:17.949Z,97822.23
2018-07-24T11:12:50.321Z,97821.20
2018-07-24T11:15:22.859Z,97808.86
2018-07-24T11:17:55.377Z,97801.47
2018-07-24T11:20:28.632Z,97800.44
2018-07-24T11:23:01.119Z,97792.11
2018-07-24T11:25:32.999Z,97789.95
2018-07-24T11:28:05.251Z,97783.78
2018-07-24T11:30:37.322Z,97775.05
2018-07-24T11:33:09.767Z,97779.06
2018-07-24T11:35:42.270Z,97784.09
2018-07-24T11:38:14.343Z,97790.78
2018-07-24T11:40:47.783Z,97799.42
2018-07-24T11:43:20.842Z,97803.73
2018-07-24T11:45:53.955Z,97810.62
2018-07-24T11:48:26.874Z,97816.05
2018-07-24T11:50:59.318Z,97815.84
2018-07-24T11:53:32.038Z,97822.02
2018-07-24T11:56:04.251Z,97825.00
2018-07-24T11:58:36.398Z,97829.00
2018-07-24T12:01:08.953Z,97830.86
2018-07-24T12:03:42.030Z,97829.00
2018-07-24T12:06:15.597Z,97816.98
2018-07-24T12:08:49.788Z,97812.25
2018-07-24T12:11:21.878Z,97821.81
2018-07-24T12:13:53.775Z,97827.88
2018-07-24T12:16:25.831Z,97838.05
2018-07-24T12:18:58.073Z,97845.98
2018-07-24T12:21:30.599Z,97844.64
2018-07-24T12:24:02.600Z,97842.80
2018-07-24T12:26:35.095Z,97840.32
2018-07-24T12:29:07.981Z,97846.69
2018-07-24T12:31:40.300Z,97853.69
2018-07-24T12:34:12.709Z,97861.70
2018-07-24T12:36:45.195Z,97863.36
2018-07-24T12:39:17.389Z,97858.52
2018-07-24T12:41:49.777Z,97869.30
2018-07-24T12:44:22.397Z,97880.22
2018-07-24T12:46:54.292Z,97892.33
2018-07-24T12:49:26.314Z,97893.36
2018-07-24T12:51:58.733Z,97888.00
2018-07-24T12:54:31.055Z,97891.30
2018-07-24T12:57:02.785Z,97888.32
2018-07-24T12:59:36.332Z,97891.42
2018-07-24T13:02:08.560Z,97889.45
2018-07-24T13:04:41.327Z,97893.98
2018-07-24T13:07:13.478Z,97910.53
2018-07-24T13:09:47.121Z,97925.74
2018-07-24T13:12:20.328Z,97940.45
2018-07-24T13:14:52.589Z,97950.43
2018-07-24T13:17:25.492Z,97949.80
2018-07-24T13:19:59.004Z,97939.42
2018-07-24T13:22:30.960Z,97945.48
2018-07-24T13:25:03.567Z,97955.35
2018-07-24T13:27:39.777Z,97952.59
2018-07-24T13:30:13.296Z,97947.25
2018-07-24T13:32:45.677Z,97953.31
2018-07-24T13:35:18.792Z,97966.98
2018-07-24T13:37:51.576Z,97998.05
2018-07-24T13:40:23.864Z,98027.14
2018-07-24T13:42:57.134Z,98029.37
2018-07-24T13:45:30.826Z,98017.14
2018-07-24T13:48:03.175Z,98010.34
2018-07-24T13:50:35.813Z,98014.66
2018-07-24T13:53:09.150Z,98027.72
2018-07-24T13:55:42.611Z,98041.50
2018-07-24T13:58:15.247Z,98039.85
2018-07-24T14:00:47.906Z,98036.55
2018-07-24T14:03:20.181Z,98034.70
2018-07-24T14:05:53.164Z,98047.44
2018-07-24T14:08:25.788Z,98045.70
2018-07-24T14:10:57.951Z,98037.47
2018-07-24T14:13:30.873Z,98028.20
2018-07-24T14:16:03.533Z,98026.36
2018-07-24T14:18:36.090Z,98031.11
2018-07-24T14:21:09.046Z,98041.80
2018-07-24T14:23:42.306Z,98039.31
2018-07-24T14:26:14.614Z,98034.06
2018-07-24T14:28:47.530Z,98029.55
2018-07-24T14:31:21.124Z,98026.36
2018-07-24T14:33:57.985Z,98042.59
2018-07-24T14:36:30.467Z,98038.56
2018-07-24T14:39:03.816Z,98047.02
2018-07-24T14:41:36.392Z,98048.16
2018-07-24T14:44:08.968Z,98062.44
2018-07-24T14:46:41.480Z,98068.52
2018-07-24T14:49:14.053Z,98065.02
2018-07-24T14:51:47.160Z,98069.53
2018-07-24T14:54:19.943Z,98081.56
2018-07-24T14:56:52.824Z,98087.80
2018-07-24T14:59:25.488Z,98093.73
2018-07-24T15:01:57.924Z,98093.09
2018-07-24T15:04:30.512Z,98099.73
2018-07-24T15:07:02.933Z,98097.06
2018-07-24T15:09:35.265Z,98098.40
2018-07-24T15:12:07.955Z,98097.24
2018-07-24T15:14:40.475Z,98098.62
2018-07-24T15:17:13.424Z,98099.73
2018-07-24T15:19:46.001Z,98088.50
2018-07-24T15:22:18.735Z,98092.31
2018-07-24T15:24:52.167Z,98105.36
2018-07-24T15:27:24.907Z,98106.70
2018-07-24T15:29:57.921Z,98100.53
2018-07-24T15:32:30.609Z,98101.35
2018-07-24T15:35:03.742Z,98114.72
2018-07-24T15:37:36.884Z,98112.43
2018-07-24T15:40:09.664Z,98111.76
2018-07-24T15:42:41.610Z,98111.22
2018-07-24T15:45:13.424Z,98116.44
2018-07-24T15:47:46.230Z,98102.77
2018-07-24T15:50:19.169Z,98098.17
2018-07-24T15:52:51.865Z,98096.64
2018-07-24T15:55:25.363Z,98089.45
2018-07-24T15:57:57.860Z,98079.91
2018-07-24T16:00:30.025Z,98067.25
2018-07-24T16:03:02.406Z,98063.24
2018-07-24T16:05:34.790Z,98066.74
2018-07-24T16:08:08.240Z,98074.25
2018-07-24T16:10:42.450Z,98077.11
2018-07-24T16:13:14.908Z,98073.73
2018-07-24T16:15:47.137Z,98069.61
2018-07-24T16:18:19.798Z,98071.58
2018-07-24T16:20:52.544Z,98072.20
2018-07-24T16:23:25.369Z,98068.71
2018-07-24T16:25:58.839Z,98072.20
2018-07-24T16:28:31.278Z,98074.88
2018-07-24T16:31:04.420Z,98072.52
2018-07-24T16:33:37.466Z,98080.93
2018-07-24T16:36:09.953Z,98078.98
2018-07-24T16:38:42.404Z,98074.78
2018-07-24T16:41:15.107Z,98072.52
2018-07-24T16:43:47.985Z,98077.33
2018-07-24T16:46:20.492Z,98076.11
2018-07-24T16:48:52.634Z,98069.75
2018-07-24T16:51:25.183Z,98070.14
2018-07-24T16:53:58.007Z,98071.47
2018-07-24T16:56:31.369Z,98073.63
2018-07-24T16:59:04.084Z,98077.45
2018-07-24T17:01:36.373Z,98076.20
2018-07-24T17:04:09.024Z,98085.25
2018-07-24T17:06:41.613Z,98093.14
2018-07-24T17:09:14.232Z,98089.35
2018-07-24T17:11:46.839Z,98078.78
2018-07-24T17:14:20.532Z,98080.73
2018-07-24T17:16:53.345Z,98091.93
2018-07-24T17:19:26.311Z,98088.82
2018-07-24T17:21:59.469Z,98091.52
2018-07-24T17:24:32.780Z,98088.56
2018-07-24T17:27:05.925Z,98095.52
2018-07-24T17:29:38.259Z,98096.66
2018-07-24T17:32:11.931Z,98086.17
2018-07-24T17:34:45.154Z,98090.91
2018-07-24T17:37:17.480Z,98090.28
2018-07-24T17:39:51.106Z,98093.27
2018-07-24T17:42:24.072Z,98095.43
2018-07-24T17:44:59.304Z,98094.80
2018-07-24T17:47:33.011Z,98097.28
2018-07-24T17:50:05.521Z,98097.28
2018-07-24T17:52:38.490Z,98095.30
2018-07-24T17:55:11.167Z,98088.31
2018-07-24T17:57:45.845Z,98084.30
2018-07-24T18:00:20.427Z,98079.59
2018-07-24T18:02:54.785Z,98086.98
2018-07-24T18:05:27.789Z,98081.63
2018-07-24T18:08:00.392Z,98083.28
2018-07-24T18:10:33.052Z,98090.38
2018-07-24T18:13:06.761Z,98090.06
2018-07-24T18:15:39.627Z,98099.06
2018-07-24T18:18:12.492Z,98094.39
2018-07-24T18:20:45.950Z,98105.94
2018-07-24T18:23:18.798Z,98098.08
2018-07-24T18:25:51.823Z,98099.06
2018-07-24T18:28:25.045Z,98096.08
2018-07-24T18:30:57.536Z,98093.09
2018-07-24T18:33:29.866Z,98098.56
2018-07-24T18:36:02.814Z,98097.06
2018-07-24T18:38:35.540Z,98096.08
2018-07-24T18:41:08.074Z,98093.41
2018-07-24T18:43:41.119Z,98088.89
2018-07-24T18:46:13.840Z,98085.39
2018-07-24T18:50:10.910Z,98083.04
2018-07-24T18:52:43.399Z,98077.89
2018-07-24T18:55:16.216Z,98070.06
2018-07-24T18:57:49.137Z,98068.52
2018-07-24T19:00:21.886Z,98069.66
2018-07-24T19:02:55.027Z,98062.24
2018-07-24T19:05:27.904Z,98057.73
2018-07-24T19:08:00.796Z,98056.49
2018-07-24T19:10:33.895Z,98055.35
2018-07-24T19:13:06.449Z,98054.77
2018-07-24T19:15:39.133Z,98054.77
2018-07-24T19:18:11.272Z,98053.62
2018-07-24T19:20:43.968Z,98063.48
2018-07-24T19:23:16.998Z,98079.52
2018-07-24T19:25:49.577Z,98075.19
2018-07-24T19:28:22.335Z,98075.52
2018-07-24T19:30:54.932Z,98066.48
2018-07-24T19:33:27.218Z,98073.34
2018-07-24T19:35:59.808Z,98075.52
2018-07-24T19:38:32.483Z,98070.82
2018-07-24T19:41:05.458Z,98068.78
2018-07-24T19:43:37.545Z,98066.02
2018-07-24T19:46:12.273Z,98064.67
2018-07-24T19:48:45.608Z,98056.79
2018-07-24T19:51:18.688Z,98053.92
2018-07-24T19:53:51.715Z,98049.92
2018-07-24T19:56:24.903Z,98047.63
2018-07-24T19:58:58.442Z,98044.58
2018-07-24T20:01:31.591Z,98042.92
2018-07-24T20:04:04.283Z,98038.50
2018-07-24T20:06:36.301Z,98036.25
2018-07-24T20:09:12.480Z,98038.19
2018-07-24T20:11:46.520Z,98031.50
2018-07-24T20:14:19.119Z,98023.20
2018-07-24T20:16:51.446Z,98023.30
2018-07-24T20:19:24.308Z,98018.27
2018-07-24T20:21:56.952Z,98017.76
2018-07-24T20:24:28.897Z,98021.13
2018-07-24T20:27:01.753Z,98019.48
2018-07-24T20:29:34.048Z,98022.98
2018-07-24T20:32:06.582Z,98021.33
2018-07-24T20:34:39.199Z,98024.31
2018-07-24T20:37:11.908Z,98014.88
2018-07-24T20:39:44.831Z,98004.89
2018-07-24T20:42:17.136Z,97995.86
2018-07-24T20:44:49.270Z,97985.88
2018-07-24T20:47:21.112Z,97991.42
2018-07-24T20:49:53.084Z,97975.52
2018-07-24T20:52:25.611Z,97974.25
2018-07-24T20:54:57.797Z,97973.45
2018-07-24T20:57:29.981Z,97977.46
2018-07-24T21:00:02.015Z,97972.33
2018-07-24T21:02:33.904Z,97975.13
2018-07-24T21:05:05.864Z,97974.88
2018-07-24T21:07:37.989Z,97975.91
2018-07-24T21:10:14.888Z,97970.88
2018-07-24T21:12:48.620Z,97975.08
2018-07-24T21:15:20.666Z,97969.64
2018-07-24T21:17:52.800Z,97954.95
2018-07-24T21:20:24.523Z,97951.86
2018-07-24T21:22:56.420Z,97952.09
2018-07-24T21:25:28.955Z,97952.09
2018-07-24T21:28:00.718Z,97953.94
2018-07-24T21:30:32.658Z,97959.78
2018-07-24T21:33:04.938Z,97957.44
2018-07-24T21:35:36.534Z,97956.61
2018-07-24T21:38:09.041Z,97940.07
2018-07-24T21:40:40.718Z,97933.27
2018-07-24T21:43:12.548Z,97923.09
2018-07-24T21:45:44.442Z,97930.48
2018-07-24T21:48:16.377Z,97937.98
2018-07-24T21:50:48.225Z,97939.32
2018-07-24T21:53:20.322Z,97934.30
2018-07-24T21:55:52.053Z,97941.99
2018-07-24T21:58:24.248Z,97948.77
2018-07-24T22:01:00.703Z,97948.77
2018-07-24T22:03:32.585Z,97943.44
2018-07-24T22:06:04.492Z,97940.56
2018-07-24T22:08:36.286Z,97948.04
2018-07-24T22:11:08.300Z,97948.27
2018-07-24T22:13:40.725Z,97951.77
2018-07-24T22:16:12.590Z,97937.36
2018-07-24T22:18:44.489Z,97932.75
2018-07-24T22:21:16.526Z,97928.33
2018-07-24T22:23:48.302Z,97935.63
2018-07-24T22:26:20.150Z,97928.01
2018-07-24T22:28:52.288Z,97920.00
2018-07-24T22:31:24.042Z,97918.89
2018-07-24T22:33:56.473Z,97918.89
2018-07-24T22:36:28.580Z,97914.97
2018-07-24T22:39:00.643Z,97917.55
2018-07-24T22:41:32.388Z,97904.80
2018-07-24T22:44:04.658Z,97902.35
2018-07-24T22:46:36.756Z,97904.91
2018-07-24T22:49:09.770Z,97905.10
2018-07-24T22:51:42.140Z,97907.45
2018-07-24T22:54:14.506Z,97909.11
2018-07-24T22:56:47.487Z,97913.42
2018-07-24T22:59:20.044Z,97913.63
2018-07-24T23:01:51.988Z,97909.11
2018-07-24T23:04:23.991Z,97912.80
2018-07-24T23:06:56.180Z,97906.44
2018-07-24T23:09:28.959Z,97899.77
2018-07-24T23:12:00.907Z,97900.08
2018-07-24T23:14:33.249Z,97912.09
2018-07-24T23:17:05.714Z,97908.28
2018-07-24T23:19:37.900Z,97899.45
2018-07-24T23:22:09.789Z,97892.17
2018-07-24T23:24:42.532Z,97894.84
2018-07-24T23:27:14.200Z,97896.17
2018-07-24T23:29:46.214Z,97903.14
2018-07-24T23:32:17.961Z,97901.40
2018-07-24T23:34:49.876Z,97908.90
2018-07-24T23:37:21.769Z,97916.98
2018-07-24T23:39:53.827Z,97918.13
2018-07-24T23:42:25.549Z,97915.65
2018-07-24T23:44:58.440Z,97914.54
2018-07-24T23:47:30.134Z,97921.53
2018-07-24T23:50:02.230Z,97916.39
2018-07-24T23:52:34.339Z,97917.30
2018-07-24T23:55:06.290Z,97910.31
2018-07-24T23:57:38.008Z,97907.64
